createdAt,value
2023-03-19T00:00:37.444Z,10.20
2023-03-19T00:03:04.187Z,10.20
2023-03-19T00:05:31.169Z,10.20
2023-03-19T00:07:57.998Z,10.10
2023-03-19T00:10:24.670Z,10.10
2023-03-19T00:12:51.327Z,10.10
2023-03-19T00:15:18.142Z,10.10
2023-03-19T00:17:44.987Z,10.10
2023-03-19T00:20:12.946Z,10.10
2023-03-19T00:22:39.805Z,10.00
2023-03-19T00:25:07.865Z,10.00
2023-03-19T00:27:34.576Z,10.00
2023-03-19T00:30:01.223Z,9.90
2023-03-19T00:32:27.885Z,9.90
2023-03-19T00:34:54.532Z,9.90
2023-03-19T00:37:21.282Z,9.90
2023-03-19T00:39:47.920Z,9.80
2023-03-19T00:42:14.616Z,9.80
2023-03-19T00:44:41.377Z,9.80
2023-03-19T00:47:08.195Z,9.70
2023-03-19T00:49:34.982Z,9.80
2023-03-19T00:52:01.643Z,9.70
2023-03-19T00:54:28.329Z,9.70
2023-03-19T00:56:55.076Z,9.60
2023-03-19T00:59:22.128Z,9.60
2023-03-19T01:01:48.871Z,9.50
2023-03-19T01:04:15.591Z,9.50
2023-03-19T01:06:42.283Z,9.50
2023-03-19T01:09:09.086Z,9.40
2023-03-19T01:11:35.971Z,9.40
2023-03-19T01:14:02.776Z,9.40
2023-03-19T01:16:29.632Z,9.40
2023-03-19T01:18:56.369Z,9.40
2023-03-19T01:21:23.038Z,9.30
2023-03-19T01:23:49.736Z,9.30
2023-03-19T01:26:16.419Z,9.30
2023-03-19T01:28:43.091Z,9.20
2023-03-19T01:31:10.005Z,9.20
2023-03-19T01:33:36.885Z,9.20
2023-03-19T01:36:04.336Z,9.20
2023-03-19T01:38:31.712Z,9.20
2023-03-19T01:40:58.397Z,9.20
2023-03-19T01:43:27.320Z,9.20
2023-03-19T01:46:25.857Z,9.20
2023-03-19T01:48:59.833Z,9.10
2023-03-19T01:51:34.538Z,9.10
2023-03-19T01:54:05.083Z,9.10
2023-03-19T01:56:34.474Z,9.10
2023-03-19T01:59:05.703Z,9.10
2023-03-19T02:01:35.478Z,9.00
2023-03-19T02:04:03.605Z,9.00
2023-03-19T02:06:31.504Z,9.00
2023-03-19T02:08:58.816Z,9.00
2023-03-19T02:11:26.154Z,9.00
2023-03-19T02:13:53.281Z,9.00
2023-03-19T02:16:20.093Z,9.00
2023-03-19T02:18:47.835Z,9.00
2023-03-19T02:21:18.460Z,9.00
2023-03-19T02:24:09.161Z,9.00
2023-03-19T02:26:36.793Z,9.00
2023-03-19T02:29:03.561Z,8.90
2023-03-19T02:31:30.392Z,8.90
2023-03-19T02:34:27.669Z,8.90
2023-03-19T02:37:19.585Z,8.90
2023-03-19T02:40:08.837Z,8.90
2023-03-19T02:42:35.652Z,8.90
2023-03-19T02:45:02.399Z,8.80
2023-03-19T02:47:29.193Z,8.90
2023-03-19T02:49:55.862Z,8.90
2023-03-19T02:52:22.536Z,8.90
2023-03-19T02:54:49.244Z,8.90
2023-03-19T02:57:16.169Z,8.90
2023-03-19T02:59:42.877Z,8.90
2023-03-19T03:02:10.102Z,8.90
2023-03-19T03:04:36.919Z,8.90
2023-03-19T03:07:04.770Z,8.90
2023-03-19T03:09:31.568Z,8.90
2023-03-19T03:11:58.275Z,8.90
2023-03-19T03:14:25.026Z,8.90
2023-03-19T03:16:51.764Z,8.90
2023-03-19T03:19:18.428Z,8.90
2023-03-19T03:21:45.059Z,8.80
2023-03-19T03:24:11.721Z,8.90
2023-03-19T03:26:38.420Z,8.90
2023-03-19T03:29:08.258Z,8.90
2023-03-19T03:31:35.398Z,8.90
2023-03-19T03:34:02.759Z,8.90
2023-03-19T03:36:29.543Z,8.90
2023-03-19T03:38:56.337Z,8.90
2023-03-19T03:41:23.020Z,8.90
2023-03-19T03:43:49.694Z,8.90
2023-03-19T03:46:16.539Z,8.90
2023-03-19T03:48:43.224Z,8.90
2023-03-19T03:51:09.889Z,8.90
2023-03-19T03:53:36.584Z,8.80
2023-03-19T03:56:03.284Z,8.70
2023-03-19T03:58:29.916Z,8.70
2023-03-19T04:00:56.621Z,8.70
2023-03-19T04:03:23.279Z,8.70
2023-03-19T04:05:50.614Z,8.70
2023-03-19T04:08:17.373Z,8.60
2023-03-19T04:10:44.167Z,8.60
2023-03-19T04:13:12.255Z,8.60
2023-03-19T04:15:39.108Z,8.60
2023-03-19T04:18:05.869Z,8.60
2023-03-19T04:20:32.815Z,8.60
2023-03-19T04:22:59.667Z,8.60
2023-03-19T04:25:26.369Z,8.60
2023-03-19T04:27:53.039Z,8.60
2023-03-19T04:30:19.765Z,8.60
2023-03-19T04:32:46.580Z,8.60
2023-03-19T04:35:13.525Z,8.60
2023-03-19T04:37:40.316Z,8.60
2023-03-19T04:40:07.604Z,8.60
2023-03-19T04:42:34.267Z,8.60
2023-03-19T04:45:00.977Z,8.60
2023-03-19T04:47:27.628Z,8.60
2023-03-19T04:49:54.315Z,8.60
2023-03-19T04:52:20.992Z,8.60
2023-03-19T04:54:47.624Z,8.60
2023-03-19T04:57:14.306Z,8.60
2023-03-19T04:59:40.956Z,8.70
2023-03-19T05:02:07.664Z,8.70
2023-03-19T05:04:34.466Z,8.70
2023-03-19T05:07:01.158Z,8.70
2023-03-19T05:09:27.938Z,8.70
2023-03-19T05:11:54.598Z,8.70
2023-03-19T05:14:21.353Z,8.80
2023-03-19T05:16:48.110Z,8.70
2023-03-19T05:19:14.878Z,8.70
2023-03-19T05:21:41.769Z,8.80
2023-03-19T05:24:08.852Z,8.80
2023-03-19T05:26:37.982Z,8.80
2023-03-19T05:29:04.674Z,8.70
2023-03-19T05:31:31.398Z,8.60
2023-03-19T05:34:00.825Z,8.50
2023-03-19T05:36:31.974Z,8.40
2023-03-19T05:38:58.690Z,8.40
2023-03-19T05:41:25.437Z,8.20
2023-03-19T05:43:52.178Z,8.00
2023-03-19T05:46:21.541Z,7.90
2023-03-19T05:48:48.295Z,7.80
2023-03-19T05:51:15.094Z,7.60
2023-03-19T05:53:41.774Z,7.60
2023-03-19T05:56:10.562Z,7.50
2023-03-19T05:58:37.536Z,7.50
2023-03-19T06:01:04.536Z,7.60
2023-03-19T06:03:31.330Z,7.70
2023-03-19T06:06:00.196Z,7.80
2023-03-19T06:08:32.616Z,7.90
2023-03-19T06:10:59.362Z,8.00
2023-03-19T06:13:28.973Z,8.10
2023-03-19T06:15:55.752Z,8.20
2023-03-19T06:18:24.645Z,8.30
2023-03-19T06:20:51.344Z,8.30
2023-03-19T06:23:18.529Z,8.40
2023-03-19T06:25:45.253Z,8.40
2023-03-19T06:28:14.362Z,8.40
2023-03-19T06:30:41.071Z,8.40
2023-03-19T06:33:07.757Z,8.40
2023-03-19T06:35:34.673Z,8.40
2023-03-19T06:38:01.405Z,8.40
2023-03-19T06:40:28.167Z,8.50
2023-03-19T06:42:54.843Z,8.40
2023-03-19T06:45:21.565Z,8.50
2023-03-19T06:47:48.261Z,8.40
2023-03-19T06:50:15.840Z,8.30
2023-03-19T06:52:42.947Z,8.40
2023-03-19T06:55:10.284Z,8.50
2023-03-19T06:57:37.270Z,8.50
2023-03-19T07:00:05.815Z,8.50
2023-03-19T07:02:32.968Z,8.50
2023-03-19T07:04:59.652Z,8.40
2023-03-19T07:07:26.688Z,8.30
2023-03-19T07:09:53.657Z,8.20
2023-03-19T07:12:20.419Z,8.10
2023-03-19T07:14:47.074Z,8.20
2023-03-19T07:17:13.845Z,8.10
2023-03-19T07:19:40.478Z,8.00
2023-03-19T07:22:07.368Z,7.80
2023-03-19T07:24:34.077Z,7.80
2023-03-19T07:27:00.843Z,7.80
2023-03-19T07:29:27.497Z,7.90
2023-03-19T07:31:54.303Z,7.80
2023-03-19T07:34:21.046Z,7.90
2023-03-19T07:36:47.718Z,8.00
2023-03-19T07:39:14.542Z,8.00
2023-03-19T07:41:41.308Z,8.10
2023-03-19T07:44:07.985Z,8.20
2023-03-19T07:46:35.008Z,8.40
2023-03-19T07:49:01.949Z,8.60
2023-03-19T07:51:28.883Z,8.80
2023-03-19T07:53:55.718Z,8.90
2023-03-19T07:56:22.457Z,9.00
2023-03-19T07:58:49.145Z,9.20
2023-03-19T08:01:15.896Z,9.30
2023-03-19T08:03:42.581Z,9.30
2023-03-19T08:06:09.488Z,9.40
2023-03-19T08:08:36.682Z,9.50
2023-03-19T08:11:04.311Z,9.60
2023-03-19T08:13:31.383Z,9.60
2023-03-19T08:15:58.067Z,9.60
2023-03-19T08:18:24.952Z,9.60
2023-03-19T08:20:51.905Z,9.70
2023-03-19T08:23:19.215Z,9.80
2023-03-19T08:25:46.058Z,9.80
2023-03-19T08:28:12.865Z,9.90
2023-03-19T08:30:42.089Z,10.00
2023-03-19T08:33:09.757Z,10.00
2023-03-19T08:35:36.917Z,10.00
2023-03-19T08:38:04.026Z,10.00
2023-03-19T08:40:30.846Z,10.00
2023-03-19T08:42:58.961Z,9.80
2023-03-19T08:45:25.863Z,9.70
2023-03-19T08:47:52.702Z,9.50
2023-03-19T08:50:19.566Z,9.50
2023-03-19T08:52:46.376Z,9.40
2023-03-19T08:55:14.710Z,9.40
2023-03-19T08:57:42.194Z,9.30
2023-03-19T09:00:09.811Z,9.30
2023-03-19T09:02:36.702Z,9.20
2023-03-19T09:05:03.762Z,9.20
2023-03-19T09:07:30.558Z,9.10
2023-03-19T09:09:57.322Z,9.10
2023-03-19T09:12:24.130Z,9.10
2023-03-19T09:14:50.971Z,9.10
2023-03-19T09:17:18.035Z,9.10
2023-03-19T09:19:44.798Z,9.10
2023-03-19T09:22:12.664Z,9.00
2023-03-19T09:24:40.753Z,9.10
2023-03-19T09:27:08.183Z,9.10
2023-03-19T09:29:34.916Z,9.10
2023-03-19T09:32:01.721Z,9.20
2023-03-19T09:34:28.465Z,9.20
2023-03-19T09:36:55.243Z,9.30
2023-03-19T09:39:22.117Z,9.30
2023-03-19T09:41:58.382Z,9.30
2023-03-19T09:44:35.180Z,9.30
2023-03-19T09:47:31.541Z,9.40
2023-03-19T09:50:23.281Z,9.40
2023-03-19T09:53:03.461Z,9.60
2023-03-19T09:55:51.459Z,9.70
2023-03-19T09:58:22.496Z,9.90
2023-03-19T10:00:50.948Z,10.10
2023-03-19T10:03:39.406Z,10.20
2023-03-19T10:06:31.756Z,10.30
2023-03-19T10:09:16.474Z,10.30
2023-03-19T10:12:15.464Z,10.40
2023-03-19T10:14:58.641Z,10.50
2023-03-19T10:17:33.338Z,10.60
2023-03-19T10:20:04.498Z,10.80
2023-03-19T10:22:38.442Z,10.80
2023-03-19T10:25:10.581Z,10.90
2023-03-19T10:27:38.157Z,11.00
2023-03-19T10:30:15.628Z,11.00
2023-03-19T10:32:53.106Z,11.10
2023-03-19T10:35:23.092Z,11.20
2023-03-19T10:37:51.285Z,11.20
2023-03-19T10:40:27.418Z,11.30
2023-03-19T10:43:20.930Z,11.30
2023-03-19T10:45:48.142Z,11.40
2023-03-19T10:48:18.855Z,11.50
2023-03-19T10:51:02.182Z,11.40
2023-03-19T10:53:35.488Z,11.50
2023-03-19T10:56:05.208Z,11.60
2023-03-19T10:58:36.764Z,11.70
2023-03-19T11:01:11.068Z,11.80
2023-03-19T11:03:38.957Z,11.80
2023-03-19T11:06:18.346Z,11.80
2023-03-19T11:08:59.416Z,11.90
2023-03-19T11:11:50.960Z,11.90
2023-03-19T11:14:19.558Z,12.00
2023-03-19T11:16:57.987Z,12.10
2023-03-19T11:19:27.613Z,12.30
2023-03-19T11:22:21.621Z,12.40
2023-03-19T11:24:50.645Z,12.50
2023-03-19T11:27:19.985Z,12.60
2023-03-19T11:29:46.892Z,12.60
2023-03-19T11:32:22.260Z,12.60
2023-03-19T11:34:59.080Z,12.70
2023-03-19T11:37:41.998Z,12.80
2023-03-19T11:40:38.236Z,12.90
2023-03-19T11:43:35.918Z,13.00
2023-03-19T11:46:36.882Z,13.10
2023-03-19T11:49:21.241Z,13.10
2023-03-19T11:52:08.632Z,13.20
2023-03-19T11:55:04.470Z,13.20
2023-03-19T11:58:09.424Z,13.10
2023-03-19T12:00:51.528Z,12.90
2023-03-19T12:03:21.694Z,12.80
2023-03-19T12:05:59.974Z,12.70
2023-03-19T12:08:35.317Z,12.80
2023-03-19T12:11:35.375Z,12.80
2023-03-19T12:14:29.923Z,12.90
2023-03-19T12:17:18.322Z,12.90
2023-03-19T12:19:54.438Z,13.00
2023-03-19T12:22:46.482Z,12.90
2023-03-19T12:25:35.261Z,12.90
2023-03-19T12:28:14.620Z,12.80
2023-03-19T12:30:49.687Z,12.90
2023-03-19T12:33:36.296Z,13.00
2023-03-19T12:36:09.346Z,13.10
2023-03-19T12:38:51.598Z,13.20
2023-03-19T12:41:25.619Z,13.30
2023-03-19T12:44:01.443Z,13.40
2023-03-19T12:46:31.493Z,13.40
2023-03-19T12:49:15.233Z,13.50
2023-03-19T12:51:46.547Z,13.60
2023-03-19T12:54:18.850Z,13.60
2023-03-19T12:57:07.129Z,13.70
2023-03-19T13:00:01.276Z,13.80
2023-03-19T13:02:44.063Z,13.80
2023-03-19T13:05:19.787Z,13.90
2023-03-19T13:08:01.826Z,14.00
2023-03-19T13:10:31.115Z,14.10
2023-03-19T13:13:00.162Z,14.20
2023-03-19T13:15:33.615Z,14.20
2023-03-19T13:18:04.555Z,14.40
2023-03-19T13:21:19.133Z,14.50
2023-03-19T13:23:49.610Z,14.60
2023-03-19T13:26:17.521Z,14.70
2023-03-19T13:29:19.659Z,14.70
2023-03-19T13:31:46.947Z,14.60
2023-03-19T13:34:29.567Z,14.60
2023-03-19T13:37:00.998Z,14.60
2023-03-19T13:39:31.366Z,14.70
2023-03-19T13:42:07.352Z,14.80
2023-03-19T13:44:39.014Z,14.90
2023-03-19T13:47:27.797Z,15.00
2023-03-19T13:50:25.059Z,15.10
2023-03-19T13:52:55.962Z,15.10
2023-03-19T13:55:25.699Z,15.20
2023-03-19T13:58:06.324Z,15.20
2023-03-19T14:00:42.090Z,15.20
2023-03-19T14:03:24.718Z,15.20
2023-03-19T14:05:54.690Z,15.30
2023-03-19T14:08:24.947Z,15.30
2023-03-19T14:11:00.199Z,15.40
2023-03-19T14:13:48.165Z,15.50
2023-03-19T14:16:29.519Z,15.60
2023-03-19T14:19:11.553Z,15.70
2023-03-19T14:22:06.880Z,15.70
2023-03-19T14:24:59.210Z,15.80
2023-03-19T14:27:30.318Z,15.80
2023-03-19T14:30:01.927Z,15.80
2023-03-19T14:32:36.517Z,15.70
2023-03-19T14:35:06.181Z,15.80
2023-03-19T14:37:42.434Z,15.90
2023-03-19T14:40:09.375Z,16.10
2023-03-19T14:43:13.154Z,16.20
2023-03-19T14:46:02.281Z,16.20
2023-03-19T14:48:54.036Z,16.20
2023-03-19T14:51:50.600Z,16.30
2023-03-19T14:54:23.528Z,16.30
2023-03-19T14:56:50.641Z,16.40
2023-03-19T14:59:17.711Z,16.50
2023-03-19T15:01:51.715Z,16.60
2023-03-19T15:04:21.771Z,16.80
2023-03-19T15:06:56.000Z,16.90
2023-03-19T15:09:31.575Z,17.00
2023-03-19T15:12:19.474Z,16.90
2023-03-19T15:15:30.945Z,16.70
2023-03-19T15:18:04.762Z,16.60
2023-03-19T15:20:46.011Z,16.40
2023-03-19T15:23:26.703Z,16.20
2023-03-19T15:26:02.849Z,16.00
2023-03-19T15:28:32.301Z,15.90
2023-03-19T15:31:14.449Z,15.70
2023-03-19T15:33:50.021Z,15.60
2023-03-19T15:36:28.131Z,15.50
2023-03-19T15:39:00.719Z,15.50
2023-03-19T15:41:30.597Z,15.50
2023-03-19T15:43:58.456Z,15.60
2023-03-19T15:46:30.813Z,15.60
2023-03-19T15:49:15.197Z,15.70
2023-03-19T15:51:44.390Z,15.80
2023-03-19T15:54:11.875Z,15.80
2023-03-19T15:56:39.298Z,15.90
2023-03-19T15:59:06.133Z,16.00
2023-03-19T16:01:33.858Z,16.00
2023-03-19T16:04:05.881Z,16.00
2023-03-19T16:06:37.778Z,16.10
2023-03-19T16:09:22.606Z,16.10
2023-03-19T16:11:50.362Z,16.10
2023-03-19T16:14:42.440Z,16.00
2023-03-19T16:17:17.712Z,16.00
2023-03-19T16:19:50.506Z,16.00
2023-03-19T16:22:32.254Z,16.00
2023-03-19T16:24:59.476Z,16.00
2023-03-19T16:27:37.240Z,15.90
2023-03-19T16:30:12.355Z,15.90
2023-03-19T16:32:39.337Z,15.90
2023-03-19T16:35:14.789Z,15.80
2023-03-19T16:37:47.247Z,15.70
2023-03-19T16:40:14.055Z,15.70
2023-03-19T16:42:41.683Z,15.60
2023-03-19T16:45:14.663Z,15.50
2023-03-19T16:47:42.379Z,15.40
2023-03-19T16:50:10.232Z,15.30
2023-03-19T16:52:39.374Z,15.20
2023-03-19T16:55:44.616Z,15.10
2023-03-19T16:58:20.133Z,15.00
2023-03-19T17:00:47.321Z,14.90
2023-03-19T17:03:17.020Z,14.80
2023-03-19T17:05:45.185Z,14.70
2023-03-19T17:08:12.450Z,14.60
2023-03-19T17:10:50.851Z,14.50
2023-03-19T17:13:29.652Z,14.40
2023-03-19T17:15:59.851Z,14.40
2023-03-19T17:18:30.083Z,14.30
2023-03-19T17:21:13.512Z,14.30
2023-03-19T17:23:40.874Z,14.20
2023-03-19T17:26:17.674Z,14.20
2023-03-19T17:28:45.374Z,14.10
2023-03-19T17:31:41.276Z,14.10
2023-03-19T17:34:12.395Z,14.00
2023-03-19T17:36:40.028Z,14.00
2023-03-19T17:39:07.497Z,14.00
2023-03-19T17:41:34.320Z,13.90
2023-03-19T17:44:01.287Z,13.90
2023-03-19T17:46:28.732Z,13.90
2023-03-19T17:48:55.840Z,13.80
2023-03-19T17:51:45.332Z,13.80
2023-03-19T17:54:13.435Z,13.80
2023-03-19T17:56:40.967Z,13.70
2023-03-19T17:59:08.340Z,13.70
2023-03-19T18:01:35.867Z,13.60
2023-03-19T18:04:04.578Z,13.60
2023-03-19T18:06:35.351Z,13.50
2023-03-19T18:09:02.710Z,13.50
2023-03-19T18:11:29.385Z,13.40
2023-03-19T18:13:56.141Z,13.40
2023-03-19T18:16:28.635Z,13.40
2023-03-19T18:18:59.031Z,13.40
2023-03-19T18:21:27.660Z,13.40
2023-03-19T18:23:55.260Z,13.30
2023-03-19T18:26:22.380Z,13.30
2023-03-19T18:28:49.086Z,13.30
2023-03-19T18:31:24.091Z,13.30
2023-03-19T18:34:03.470Z,13.30
2023-03-19T18:36:32.025Z,13.30
2023-03-19T18:38:59.094Z,13.40
2023-03-19T18:41:27.774Z,13.40
2023-03-19T18:43:54.949Z,13.30
2023-03-19T18:46:27.774Z,13.20
2023-03-19T18:49:14.056Z,13.20
2023-03-19T18:51:51.391Z,13.20
2023-03-19T18:54:28.110Z,13.10
2023-03-19T18:56:55.336Z,13.10
2023-03-19T18:59:30.521Z,13.10
2023-03-19T19:02:13.113Z,13.00
2023-03-19T19:04:40.437Z,13.00
2023-03-19T19:07:12.230Z,13.00
2023-03-19T19:09:38.909Z,13.00
2023-03-19T19:12:06.089Z,13.00
2023-03-19T19:14:33.717Z,12.90
2023-03-19T19:17:00.526Z,12.90
2023-03-19T19:19:29.189Z,12.80
2023-03-19T19:21:55.992Z,12.80
2023-03-19T19:24:22.782Z,12.70
2023-03-19T19:26:51.439Z,12.70
2023-03-19T19:29:26.646Z,12.70
2023-03-19T19:31:54.100Z,12.70
2023-03-19T19:34:21.078Z,12.70
2023-03-19T19:36:47.813Z,12.70
2023-03-19T19:39:14.683Z,12.70
2023-03-19T19:41:41.474Z,12.70
2023-03-19T19:44:16.452Z,12.70
2023-03-19T19:46:45.576Z,12.70
2023-03-19T19:49:14.515Z,12.70
2023-03-19T19:51:41.280Z,12.70
2023-03-19T19:54:08.169Z,12.70
2023-03-19T19:56:34.916Z,12.70
2023-03-19T19:59:04.106Z,12.70
2023-03-19T20:01:30.908Z,12.70
2023-03-19T20:03:57.656Z,12.70
2023-03-19T20:06:24.740Z,12.70
2023-03-19T20:08:51.422Z,12.70
2023-03-19T20:11:23.612Z,12.70
2023-03-19T20:13:52.892Z,12.70
2023-03-19T20:16:20.962Z,12.70
2023-03-19T20:18:47.904Z,12.70
2023-03-19T20:21:15.412Z,12.60
2023-03-19T20:23:43.670Z,12.60
2023-03-19T20:26:14.786Z,12.60
2023-03-19T20:28:43.563Z,12.60
2023-03-19T20:31:34.782Z,12.60
2023-03-19T20:34:04.118Z,12.60
2023-03-19T20:36:31.350Z,12.60
2023-03-19T20:38:58.123Z,12.60
2023-03-19T20:41:26.264Z,12.60
2023-03-19T20:43:54.027Z,12.60
2023-03-19T20:46:22.222Z,12.50
2023-03-19T20:48:49.645Z,12.50
2023-03-19T20:51:22.195Z,12.50
2023-03-19T20:53:48.944Z,12.50
2023-03-19T20:56:17.699Z,12.50
2023-03-19T20:58:45.104Z,12.50
2023-03-19T21:01:12.302Z,12.50
2023-03-19T21:03:39.141Z,12.40
2023-03-19T21:06:14.992Z,12.40
2023-03-19T21:08:44.579Z,12.40
2023-03-19T21:11:23.244Z,12.40
2023-03-19T21:13:52.795Z,12.40
2023-03-19T21:16:25.805Z,12.30
2023-03-19T21:18:53.076Z,12.30
2023-03-19T21:21:34.241Z,12.30
2023-03-19T21:24:07.812Z,12.30
2023-03-19T21:26:37.654Z,12.30
2023-03-19T21:29:08.620Z,12.30
2023-03-19T21:31:35.316Z,12.30
2023-03-19T21:34:02.065Z,12.20
2023-03-19T21:36:28.798Z,12.20
2023-03-19T21:38:55.590Z,12.20
2023-03-19T21:41:25.942Z,12.10
2023-03-19T21:43:59.438Z,12.10
2023-03-19T21:46:29.413Z,12.10
2023-03-19T21:48:58.438Z,12.00
2023-03-19T21:51:27.086Z,12.10
2023-03-19T21:53:54.236Z,12.00
2023-03-19T21:56:26.353Z,12.00
2023-03-19T21:58:53.519Z,12.00
2023-03-19T22:01:23.457Z,12.00
2023-03-19T22:03:51.779Z,12.00
2023-03-19T22:06:18.531Z,11.90
2023-03-19T22:08:45.445Z,11.90
2023-03-19T22:11:25.984Z,11.90
2023-03-19T22:13:53.335Z,11.90
2023-03-19T22:16:25.394Z,11.90
2023-03-19T22:18:53.083Z,11.90
2023-03-19T22:21:22.746Z,11.90
2023-03-19T22:23:50.357Z,11.90
2023-03-19T22:26:29.794Z,11.90
2023-03-19T22:28:59.129Z,11.90
2023-03-19T22:31:26.264Z,11.80
2023-03-19T22:33:53.304Z,11.80
2023-03-19T22:36:20.139Z,11.80
2023-03-19T22:38:46.983Z,11.80
2023-03-19T22:41:18.425Z,11.80
2023-03-19T22:43:45.822Z,11.80
2023-03-19T22:46:16.088Z,11.80
2023-03-19T22:48:46.273Z,11.80
2023-03-19T22:51:16.976Z,11.80
2023-03-19T22:53:44.033Z,11.80
2023-03-19T22:56:11.860Z,11.70
2023-03-19T22:58:38.600Z,11.70
2023-03-19T23:01:20.776Z,11.60
2023-03-19T23:03:49.426Z,11.60
2023-03-19T23:06:29.609Z,11.60
2023-03-19T23:08:57.397Z,11.60
2023-03-19T23:11:24.130Z,11.60
2023-03-19T23:13:51.004Z,11.60
2023-03-19T23:16:21.982Z,11.60
2023-03-19T23:18:49.452Z,11.60
2023-03-19T23:21:18.027Z,11.60
2023-03-19T23:23:45.337Z,11.60
2023-03-19T23:26:31.138Z,11.60
2023-03-19T23:29:04.117Z,11.60
2023-03-19T23:31:30.928Z,11.50
2023-03-19T23:33:57.617Z,11.50
2023-03-19T23:36:24.335Z,11.50
2023-03-19T23:38:51.698Z,11.60
2023-03-19T23:41:24.977Z,11.50
2023-03-19T23:43:52.807Z,11.50
2023-03-19T23:46:20.746Z,11.50
2023-03-19T23:48:47.558Z,11.50
2023-03-19T23:51:15.561Z,11.50
2023-03-19T23:53:42.852Z,11.50
2023-03-19T23:56:20.845Z,11.50
2023-03-19T23:58:50.256Z,11.50
